Pescasar — EBXW — position and weather

sailwx.info

Track history (hours):
 
Tides and Currents Weather Stations Pressure Air Temp Water Temp Dewpoint Dewpoint Depression Visibility Wind Speed Wind Dir Waves Ship Positions

Pescasar

Last reported at 2014-Jan-08 21:18 UTC. Time now 2014-Nov-26 11:16 UTC.
Position N 43°41' W 008°42'.
Warning: this ship's position is months out of date.

Length 28 m; draft 5 m.

Type: Fishing. MMSI: 224105920.

Date/timePositionNaut miles runAvg speedWind from/ knotsBaromVisibWave heightAir tempDewpointWater temp
2014-Jan-08 21:18N 43°41' W 008°42'2 2.9
2014-Jan-08 20:33N 43°42' W 008°40'3 2.9
2014-Jan-08 19:33N 43°44' W 008°36'3 3.0
2014-Jan-08 18:33N 43°46' W 008°33'2 2.5
2014-Jan-08 17:33N 43°48' W 008°36'2 2.5
2014-Jan-08 16:33N 43°50' W 008°33'3 2.8
2014-Jan-08 15:33N 43°52' W 008°30'3 2.8
2014-Jan-08 14:29N 43°53' W 008°27'3 2.8
2014-Jan-08 13:33N 43°55' W 008°24'3 2.1
2014-Jan-08 12:15N 43°53' W 008°21'2 3.1
2014-Jan-08 11:31N 43°51' W 008°22'3 3.5
2014-Jan-08 10:33N 43°48' W 008°25'4 3.6
2014-Jan-08 09:33N 43°46' W 008°29'4 3.6
2014-Jan-08 08:33N 43°44' W 008°33'3 2.6
2014-Jan-08 07:33N 43°43' W 008°36'3 3.1
2014-Jan-08 06:33N 43°41' W 008°40'3 3.0
2014-Jan-08 05:33N 43°39' W 008°43'3 3.1
2014-Jan-08 04:33N 43°38' W 008°47'3 2.9
2014-Jan-08 03:33N 43°37' W 008°51'2 1.6
2014-Jan-08 02:33N 43°35' W 008°52'3 3.3
2014-Jan-08 01:33N 43°34' W 008°56'3 3.2
2014-Jan-08 00:34N 43°32' W 008°60'3 3.0
2014-Jan-07 23:33N 43°30' W 009°03'3 3.3
2014-Jan-07 22:33N 43°28' W 009°06'9 8.6
2014-Jan-07 21:33N 43°20' W 009°10'  
Track history (hours):
 
Tides and Currents Weather Stations Pressure Air Temp Water Temp Dewpoint Dewpoint Depression Visibility Wind Speed Wind Dir Waves Ship Positions

Pescasar

Last reported at 2014-Jan-08 21:18 UTC. Time now 2014-Nov-26 11:16 UTC.
Position N 43°41' W 008°42'.
Warning: this ship's position is months out of date.

Length 28 m; draft 5 m.

Type: Fishing. MMSI: 224105920.

Date/timePositionNaut miles runAvg speedWind from/ knotsBaromVisibWave heightAir tempDewpointWater temp
2014-Jan-08 21:18N 43°41' W 008°42'2 2.9
2014-Jan-08 20:33N 43°42' W 008°40'3 2.9
2014-Jan-08 19:33N 43°44' W 008°36'3 3.0
2014-Jan-08 18:33N 43°46' W 008°33'2 2.5
2014-Jan-08 17:33N 43°48' W 008°36'2 2.5
2014-Jan-08 16:33N 43°50' W 008°33'3 2.8
2014-Jan-08 15:33N 43°52' W 008°30'3 2.8
2014-Jan-08 14:29N 43°53' W 008°27'3 2.8
2014-Jan-08 13:33N 43°55' W 008°24'3 2.1
2014-Jan-08 12:15N 43°53' W 008°21'2 3.1
2014-Jan-08 11:31N 43°51' W 008°22'3 3.5
2014-Jan-08 10:33N 43°48' W 008°25'4 3.6
2014-Jan-08 09:33N 43°46' W 008°29'4 3.6
2014-Jan-08 08:33N 43°44' W 008°33'3 2.6
2014-Jan-08 07:33N 43°43' W 008°36'3 3.1
2014-Jan-08 06:33N 43°41' W 008°40'3 3.0
2014-Jan-08 05:33N 43°39' W 008°43'3 3.1
2014-Jan-08 04:33N 43°38' W 008°47'3 2.9
2014-Jan-08 03:33N 43°37' W 008°51'2 1.6
2014-Jan-08 02:33N 43°35' W 008°52'3 3.3
2014-Jan-08 01:33N 43°34' W 008°56'3 3.2
2014-Jan-08 00:34N 43°32' W 008°60'3 3.0
2014-Jan-07 23:33N 43°30' W 009°03'3 3.3
2014-Jan-07 22:33N 43°28' W 009°06'9 8.6
2014-Jan-07 21:33N 43°20' W 009°10'  

Dump ship's entire track history